Time;durP1;ratioP1;P1;durP2;ratioP2;P2;SDS_P1;SDS_P2;PMS_P1;PMS_P2;Temp;Humidity;BMP_temperature;BMP_pressure;BME280_temperature;BME280_humidity;BME280_pressure;Samples;Min_cycle;Max_cycle;Signal;HPM_P1;HPM_P2
2021/09/16 00:01:19;;;;;;;5.25;2.35;;;;;;;16.00;87.81;95467.41;6167356;23;20160;-79
2021/09/16 00:03:45;;;;;;;4.35;1.95;;;;;;;16.01;87.98;95474.28;6168646;23;20152;-79
2021/09/16 00:06:10;;;;;;;3.25;2.28;;;;;;;16.03;87.88;95466.22;6165402;23;20180;-78
2021/09/16 00:08:35;;;;;;;3.42;2.40;;;;;;;16.04;87.91;95473.09;6142084;23;20171;-79
2021/09/16 00:11:01;;;;;;;2.80;2.00;;;;;;;16.03;87.96;95480.13;6165130;23;20159;-78
2021/09/16 00:13:26;;;;;;;2.78;2.30;;;;;;;16.05;87.82;95469.47;6165276;23;20521;-78
2021/09/16 00:15:53;;;;;;;4.40;2.08;;;;;;;16.09;87.80;95475.97;6164709;23;20194;-81
2021/09/16 00:18:19;;;;;;;2.30;1.90;;;;;;;16.11;87.78;95480.03;6166414;23;20179;-78
2021/09/16 00:20:44;;;;;;;2.55;1.60;;;;;;;16.13;87.54;95474.59;6166417;23;20155;-78
2021/09/16 00:23:09;;;;;;;2.67;1.70;;;;;;;16.16;87.60;95476.84;6164976;23;20164;-78
2021/09/16 00:25:35;;;;;;;1.77;1.65;;;;;;;16.19;87.41;95481.75;6139728;23;20257;-78
2021/09/16 00:28:00;;;;;;;3.58;2.00;;;;;;;16.21;87.30;95484.16;6168076;23;20614;-79
2021/09/16 00:30:25;;;;;;;1.70;1.60;;;;;;;16.22;87.14;95483.97;6166081;23;20496;-79
2021/09/16 00:32:51;;;;;;;3.05;1.98;;;;;;;16.21;87.14;95474.50;6141603;23;20155;-78
2021/09/16 00:35:16;;;;;;;1.83;1.70;;;;;;;16.24;87.36;95473.31;6164101;23;20233;-79
2021/09/16 00:37:42;;;;;;;3.45;1.52;;;;;;;16.24;87.14;95481.16;6164517;23;20175;-77
2021/09/16 00:40:08;;;;;;;2.33;1.98;;;;;;;16.24;87.14;95486.41;6140039;23;20159;-77
2021/09/16 00:42:33;;;;;;;2.10;1.40;;;;;;;16.24;86.72;95481.16;6166370;23;20186;-78
2021/09/16 00:44:59;;;;;;;2.17;1.50;;;;;;;16.29;86.33;95486.69;6164994;23;20184;-79
2021/09/16 00:47:24;;;;;;;1.67;1.50;;;;;;;16.31;86.30;95487.31;6140755;23;20163;-79
2021/09/16 00:49:49;;;;;;;3.03;1.63;;;;;;;16.31;86.17;95487.31;6140288;23;20206;-76
2021/09/16 00:52:15;;;;;;;3.03;1.60;;;;;;;16.34;86.21;95486.94;6165671;23;20234;-79
2021/09/16 00:54:45;;;;;;;2.17;1.88;;;;;;;16.36;86.39;95484.97;6140516;23;20167;-78
2021/09/16 00:57:13;;;;;;;3.78;1.90;;;;;;;16.35;86.40;95485.97;6165573;23;20152;-78
2021/09/16 00:59:38;;;;;;;1.42;1.33;;;;;;;16.33;86.51;95487.94;6165188;23;20183;-78
2021/09/16 01:02:04;;;;;;;3.08;1.65;;;;;;;16.32;86.57;95487.13;6166526;23;20186;-78
2021/09/16 01:04:31;;;;;;;2.45;1.80;;;;;;;16.32;86.80;95489.75;6140358;23;20155;-78
2021/09/16 01:06:56;;;;;;;3.30;1.90;;;;;;;16.33;87.11;95487.94;6141861;23;20198;-79
2021/09/16 01:09:23;;;;;;;2.03;1.85;;;;;;;16.33;86.92;95483.50;6169006;23;20182;-77
2021/09/16 01:11:48;;;;;;;2.38;1.52;;;;;;;16.30;87.15;95493.53;6173584;23;20227;-79
2021/09/16 01:14:24;;;;;;;3.05;2.00;;;;;;;16.34;86.98;95492.16;6158285;23;20151;-79
2021/09/16 01:16:51;;;;;;;2.88;1.63;;;;;;;16.30;86.94;95498.78;6160981;23;20629;-77
2021/09/16 01:19:17;;;;;;;2.78;1.80;;;;;;;16.32;86.74;95497.59;6158719;23;20155;-78
2021/09/16 01:21:42;;;;;;;2.65;1.50;;;;;;;16.27;87.10;95489.50;6158806;23;20163;-77
2021/09/16 01:24:08;;;;;;;1.85;1.55;;;;;;;16.28;87.12;95496.34;6133219;23;20190;-79
2021/09/16 01:26:33;;;;;;;1.92;1.48;;;;;;;16.30;87.09;95493.53;6159161;23;20195;-78
2021/09/16 01:28:58;;;;;;;1.60;1.50;;;;;;;16.30;87.47;95494.34;6134122;23;20183;-78
2021/09/16 01:31:44;;;;;;;1.30;1.20;;;;;;;16.31;87.58;95484.69;6161842;23;20493;-80
2021/09/16 01:34:11;;;;;;;2.20;1.50;;;;;;;16.32;87.65;95481.06;6159375;23;20152;-77
2021/09/16 01:36:41;;;;;;;1.48;1.38;;;;;;;16.32;87.57;95479.25;6160157;23;20171;-79
2021/09/16 01:39:09;;;;;;;2.40;1.35;;;;;;;16.32;87.42;95479.25;6158284;23;20158;-78
2021/09/16 01:41:34;;;;;;;4.38;1.35;;;;;;;16.31;87.72;95474.22;6135069;23;20175;-79
2021/09/16 01:44:00;;;;;;;1.85;1.40;;;;;;;16.32;88.07;95478.44;6159112;23;20615;-79
2021/09/16 01:46:25;;;;;;;4.00;1.50;;;;;;;16.28;87.91;95472.78;6159523;23;20565;-78
2021/09/16 01:48:51;;;;;;;1.35;1.25;;;;;;;16.34;87.27;95468.59;6159769;23;20497;-78
2021/09/16 01:51:16;;;;;;;1.73;1.40;;;;;;;16.27;87.78;95462.47;6135319;23;20476;-78
2021/09/16 01:53:42;;;;;;;2.53;1.70;;;;;;;16.27;87.93;95458.06;6159245;23;20223;-79
2021/09/16 01:56:08;;;;;;;3.90;1.65;;;;;;;16.30;87.55;95459.47;6135963;23;20249;-79
2021/09/16 01:58:33;;;;;;;2.15;1.40;;;;;;;16.21;87.97;95450.13;6160238;23;20155;-79
2021/09/16 02:00:59;;;;;;;2.30;1.30;;;;;;;16.22;88.34;95462.22;6136554;23;20540;-78
2021/09/16 02:03:24;;;;;;;3.08;1.38;;;;;;;16.23;88.17;95446.31;6139702;23;20163;-77
2021/09/16 02:05:49;;;;;;;2.67;1.60;;;;;;;16.24;88.04;95454.97;6170328;23;20179;-79
2021/09/16 02:08:15;;;;;;;4.15;1.40;;;;;;;16.25;87.96;95454.78;6172153;23;20159;-79
2021/09/16 02:10:40;;;;;;;2.28;1.55;;;;;;;16.23;88.24;95451.53;6172554;23;20156;-78
2021/09/16 02:13:05;;;;;;;2.63;1.30;;;;;;;16.21;88.73;95448.31;6147536;23;20156;-79
2021/09/16 02:15:31;;;;;;;1.38;1.27;;;;;;;16.25;88.06;95446.13;6170447;23;20171;-79
2021/09/16 02:17:56;;;;;;;3.10;1.60;;;;;;;16.26;88.49;95447.75;6171350;23;20155;-80
2021/09/16 02:20:21;;;;;;;4.13;1.80;;;;;;;16.24;88.27;95452.34;6170071;23;20170;-80
2021/09/16 02:22:47;;;;;;;3.15;1.48;;;;;;;16.23;88.72;95445.50;6170704;23;20497;-78
2021/09/16 02:25:12;;;;;;;1.83;1.45;;;;;;;16.21;88.46;95437.81;6169666;23;20522;-79
2021/09/16 02:27:37;;;;;;;2.88;1.80;;;;;;;16.22;88.73;95443.88;6170046;23;20151;-78
2021/09/16 02:30:04;;;;;;;1.75;1.65;;;;;;;16.22;88.67;95436.81;6169209;23;20156;-78
2021/09/16 02:32:29;;;;;;;1.73;1.63;;;;;;;16.24;88.84;95436.63;6169555;23;20167;-78
2021/09/16 02:34:55;;;;;;;2.58;1.65;;;;;;;16.25;88.51;95436.44;6174427;23;20166;-78
2021/09/16 02:37:20;;;;;;;3.70;1.70;;;;;;;16.29;88.48;95442.94;6162778;23;20151;-78
2021/09/16 02:39:45;;;;;;;3.05;1.60;;;;;;;16.28;88.27;95440.53;6158902;23;20156;-79
2021/09/16 02:42:11;;;;;;;4.20;2.15;;;;;;;16.25;88.64;95439.06;6135357;23;20613;-78
2021/09/16 02:44:36;;;;;;;1.98;1.73;;;;;;;16.29;88.74;95442.94;6134880;23;20163;-79
2021/09/16 02:47:02;;;;;;;4.07;2.00;;;;;;;16.26;88.68;95442.53;6159941;23;20175;-77
2021/09/16 02:49:27;;;;;;;1.63;1.52;;;;;;;16.27;88.99;95444.13;6160128;23;20218;-78
2021/09/16 02:51:52;;;;;;;3.47;1.80;;;;;;;16.22;88.81;95442.06;6161227;23;20223;-77
2021/09/16 02:54:18;;;;;;;1.70;1.50;;;;;;;16.27;89.20;95441.53;6159055;23;20163;-79
2021/09/16 02:56:43;;;;;;;1.98;1.67;;;;;;;16.24;88.83;95441.88;6160144;23;20171;-78
2021/09/16 02:59:09;;;;;;;2.17;1.63;;;;;;;16.23;88.82;95442.88;6136333;23;20215;-79
2021/09/16 03:01:34;;;;;;;2.03;1.52;;;;;;;16.21;89.24;95444.88;6160732;23;20163;-77
2021/09/16 03:03:59;;;;;;;3.20;1.60;;;;;;;16.18;89.45;95453.13;6134296;23;20178;-78
2021/09/16 03:06:25;;;;;;;2.10;1.90;;;;;;;16.19;89.48;95452.91;6160210;23;20256;-79
2021/09/16 03:08:50;;;;;;;2.60;1.80;;;;;;;16.14;89.76;95445.59;6160255;23;20213;-79
2021/09/16 03:11:15;;;;;;;3.67;2.03;;;;;;;16.10;89.83;95440.94;6160057;23;20250;-80
2021/09/16 03:13:41;;;;;;;2.67;1.92;;;;;;;16.11;89.55;95445.16;6134990;23;20253;-78
2021/09/16 03:16:06;;;;;;;3.88;1.90;;;;;;;16.08;89.83;95435.88;6160579;23;20171;-80
2021/09/16 03:18:32;;;;;;;2.95;2.10;;;;;;;16.06;89.76;95430.00;6164531;23;20182;-79
2021/09/16 03:20:57;;;;;;;3.45;2.25;;;;;;;16.04;89.91;95433.78;6165394;23;20589;-79
2021/09/16 03:23:22;;;;;;;2.22;1.70;;;;;;;16.05;89.78;95425.75;6138074;23;20628;-79
2021/09/16 03:25:47;;;;;;;3.55;2.10;;;;;;;16.08;89.89;95422.78;6163124;23;20179;-79
2021/09/16 03:28:13;;;;;;;5.13;2.00;;;;;;;16.10;89.87;95430.44;6164219;23;20169;-78
2021/09/16 03:30:38;;;;;;;4.82;1.92;;;;;;;16.05;90.02;95423.13;6138112;23;20167;-78
2021/09/16 03:33:04;;;;;;;3.25;1.88;;;;;;;16.02;89.97;95417.47;6137671;23;20199;-79
2021/09/16 03:35:29;;;;;;;3.47;1.92;;;;;;;16.05;90.06;95423.13;6160779;23;20266;-78
2021/09/16 03:37:54;;;;;;;5.57;1.98;;;;;;;16.02;90.25;95422.69;6161889;23;20227;-78
2021/09/16 03:40:20;;;;;;;6.40;1.70;;;;;;;16.03;90.27;95426.94;6136003;23;20470;-79
2021/09/16 03:42:46;;;;;;;3.75;1.95;;;;;;;16.04;90.39;95431.19;6136381;23;20159;-79
2021/09/16 03:45:11;;;;;;;5.15;2.28;;;;;;;16.02;90.18;95436.59;6135586;23;20242;-79
2021/09/16 03:47:37;;;;;;;2.97;1.73;;;;;;;16.03;90.18;95424.31;6137261;23;20223;-79
2021/09/16 03:50:03;;;;;;;3.65;1.95;;;;;;;16.03;90.58;95434.78;6137945;23;20164;-80
2021/09/16 03:52:28;;;;;;;2.20;1.75;;;;;;;16.01;90.48;95432.38;6161423;23;20262;-79
2021/09/16 03:54:53;;;;;;;3.35;1.63;;;;;;;16.05;90.36;95435.41;6161061;23;20189;-77
2021/09/16 03:57:18;;;;;;;2.17;1.98;;;;;;;16.06;90.31;95439.66;6163082;23;20143;-80
2021/09/16 03:59:44;;;;;;;3.28;1.88;;;;;;;16.09;90.13;95442.75;6138355;23;20191;-78
2021/09/16 04:02:09;;;;;;;1.70;1.60;;;;;;;16.09;90.14;95437.50;6162593;23;20163;-75
2021/09/16 04:04:34;;;;;;;3.80;1.80;;;;;;;16.10;90.37;95436.50;6161518;23;20537;-78
2021/09/16 04:07:01;;;;;;;4.60;1.95;;;;;;;16.09;90.00;95439.31;6161749;23;20185;-79
2021/09/16 04:09:26;;;;;;;5.63;2.05;;;;;;;16.08;90.38;95441.13;6161645;23;20161;-78
2021/09/16 04:11:52;;;;;;;3.78;2.08;;;;;;;16.08;90.15;95438.50;6162752;23;20159;-79
2021/09/16 04:14:17;;;;;;;2.25;1.92;;;;;;;16.08;89.97;95443.75;6160425;23;20151;-79
2021/09/16 04:16:42;;;;;;;2.28;2.00;;;;;;;16.10;90.29;95449.59;6161659;23;20201;-79
2021/09/16 04:19:08;;;;;;;1.85;1.75;;;;;;;16.11;90.21;95448.59;6163440;23;20177;-78
2021/09/16 04:21:33;;;;;;;3.17;1.88;;;;;;;16.12;90.39;95446.78;6163829;23;20215;-78
2021/09/16 04:23:59;;;;;;;3.58;1.98;;;;;;;16.13;90.63;95441.34;6163256;23;20159;-80
2021/09/16 04:26:24;;;;;;;1.90;1.80;;;;;;;16.12;90.94;95436.31;6163974;23;20262;-79
2021/09/16 04:28:49;;;;;;;3.22;2.13;;;;;;;16.11;90.82;95438.13;6137924;23;20163;-77
2021/09/16 04:31:15;;;;;;;3.78;2.10;;;;;;;16.11;91.45;95445.97;6164456;23;20175;-77
2021/09/16 04:33:40;;;;;;;4.82;2.25;;;;;;;16.11;91.44;95437.31;6166534;23;20167;-76
2021/09/16 04:36:05;;;;;;;2.30;2.00;;;;;;;16.09;91.82;95450.59;6162921;23;20167;-78
2021/09/16 04:38:30;;;;;;;4.05;2.47;;;;;;;16.09;91.78;95447.97;6139584;23;20240;-77
2021/09/16 04:40:56;;;;;;;3.58;1.77;;;;;;;16.08;91.99;95448.16;6138431;23;20210;-78
2021/09/16 04:43:21;;;;;;;2.55;2.10;;;;;;;16.09;92.38;95453.22;6170085;23;20151;-79
2021/09/16 04:45:46;;;;;;;2.33;2.10;;;;;;;16.08;92.41;95463.88;6165817;23;20179;-78
2021/09/16 04:48:12;;;;;;;2.40;1.98;;;;;;;16.09;92.37;95455.84;6167399;23;20166;-78
2021/09/16 04:50:37;;;;;;;3.97;2.65;;;;;;;16.08;92.90;95458.66;6142084;23;20222;-78
2021/09/16 04:53:02;;;;;;;10.20;3.53;;;;;;;16.07;92.52;95457.81;6167548;23;20155;-79
2021/09/16 04:55:28;;;;;;;8.65;2.85;;;;;;;16.05;93.41;95453.75;6167887;23;20187;-78
2021/09/16 04:57:53;;;;;;;4.60;2.97;;;;;;;16.06;93.52;95458.81;6141631;23;20168;-76
2021/09/16 05:00:18;;;;;;;2.85;2.53;;;;;;;16.04;93.75;95458.19;6166315;23;20167;-79
2021/09/16 05:02:44;;;;;;;3.83;2.65;;;;;;;16.06;93.77;95455.38;6166149;23;20166;-78
2021/09/16 05:05:10;;;;;;;5.38;2.42;;;;;;;16.09;93.39;95457.66;6164617;23;20187;-79
2021/09/16 05:07:35;;;;;;;3.65;2.60;;;;;;;16.09;93.83;95455.84;6166092;23;20613;-78
2021/09/16 05:10:00;;;;;;;4.45;2.75;;;;;;;16.10;93.94;95454.84;6141725;23;20609;-79
2021/09/16 05:12:25;;;;;;;7.57;2.83;;;;;;;16.09;93.71;95453.22;6167350;23;20207;-78
2021/09/16 05:14:51;;;;;;;3.92;2.47;;;;;;;16.11;94.11;95461.69;6166737;23;20182;-79
2021/09/16 05:17:16;;;;;;;3.00;2.70;;;;;;;16.10;93.75;95465.31;6166645;23;20160;-78
2021/09/16 05:19:41;;;;;;;5.63;3.20;;;;;;;16.12;94.10;95458.06;6167052;23;20667;-78
2021/09/16 05:22:07;;;;;;;4.35;2.42;;;;;;;16.12;93.97;95455.47;6166327;23;20663;-79
2021/09/16 05:24:32;;;;;;;3.28;2.92;;;;;;;16.14;94.39;95455.28;6166581;23;20156;-78
2021/09/16 05:26:58;;;;;;;3.17;2.78;;;;;;;16.10;94.13;95460.06;6168060;23;20262;-76
2021/09/16 05:29:23;;;;;;;5.88;2.47;;;;;;;16.09;94.40;95462.88;6165642;23;20174;-78
2021/09/16 05:31:48;;;;;;;3.10;2.42;;;;;;;16.10;94.51;95457.47;6167698;23;20249;-79
2021/09/16 05:34:14;;;;;;;3.45;2.70;;;;;;;16.14;94.48;95460.50;6141562;23;20178;-76
2021/09/16 05:36:39;;;;;;;3.25;2.58;;;;;;;16.14;94.33;95458.69;6167789;23;20165;-79
2021/09/16 05:39:04;;;;;;;3.13;2.83;;;;;;;16.15;94.51;95452.47;6166051;23;20151;-79
2021/09/16 05:41:30;;;;;;;4.25;3.45;;;;;;;16.10;94.88;95454.84;6167590;23;20211;-77
2021/09/16 05:43:56;;;;;;;4.53;3.55;;;;;;;16.09;95.10;95466.31;6166165;23;20163;-78
2021/09/16 05:46:22;;;;;;;5.57;3.80;;;;;;;16.05;95.55;95465.03;6143489;23;20183;-77
2021/09/16 05:48:47;;;;;;;4.32;3.90;;;;;;;16.01;95.45;95466.41;6142882;23;20155;-78
2021/09/16 05:51:12;;;;;;;6.97;4.03;;;;;;;15.94;95.85;95473.38;6166505;23;20174;-80
2021/09/16 05:53:38;;;;;;;3.70;3.40;;;;;;;15.95;95.77;95467.13;6167412;23;20186;-79
2021/09/16 05:56:03;;;;;;;6.05;5.53;;;;;;;15.97;95.93;95474.81;6171314;23;20345;-79
2021/09/16 05:58:29;;;;;;;6.70;5.97;;;;;;;15.90;96.57;95472.09;6169740;23;20239;-78
2021/09/16 06:00:54;;;;;;;6.82;5.05;;;;;;;15.95;96.28;95469.75;6169791;23;20159;-77
2021/09/16 06:03:19;;;;;;;6.80;5.40;;;;;;;15.88;96.77;95468.84;6169227;23;20233;-78
2021/09/16 06:05:44;;;;;;;6.10;5.60;;;;;;;15.85;96.74;95472.66;6167984;23;20206;-79
2021/09/16 06:08:11;;;;;;;8.00;6.40;;;;;;;15.88;97.00;95465.44;6170422;23;20542;-79
2021/09/16 06:10:36;;;;;;;17.27;8.73;;;;;;;15.83;96.91;95479.06;6169396;23;20170;-78
2021/09/16 06:13:01;;;;;;;10.13;9.13;;;;;;;15.83;96.60;95484.31;6147432;23;20159;-79
2021/09/16 06:15:27;;;;;;;180.98;17.08;;;;;;;15.78;97.21;95481.41;6172727;23;20182;-79
2021/09/16 06:17:52;;;;;;;83.68;12.45;;;;;;;15.75;97.28;95484.41;6174929;23;20151;-79
2021/09/16 06:20:17;;;;;;;22.70;11.50;;;;;;;15.73;97.24;95489.00;6173534;23;20182;-80
2021/09/16 06:22:46;;;;;;;172.85;19.02;;;;;;;15.69;97.01;95490.34;6148587;23;20162;-79
2021/09/16 06:25:12;;;;;;;200.65;19.77;;;;;;;15.65;97.34;95500.38;6171502;23;20179;-79
2021/09/16 06:27:37;;;;;;;46.58;15.18;;;;;;;15.69;97.00;95498.22;6172094;23;20176;-78
2021/09/16 06:30:03;;;;;;;144.32;17.35;;;;;;;15.70;96.86;95505.06;6171325;23;20594;-77
2021/09/16 06:32:29;;;;;;;445.90;31.77;;;;;;;15.57;97.05;95505.66;6173556;23;20213;-77
2021/09/16 06:34:54;;;;;;;25.25;17.40;;;;;;;15.61;97.36;95514.00;6170930;23;20269;-79
2021/09/16 06:37:19;;;;;;;228.70;22.98;;;;;;;15.58;96.98;95505.47;6170257;23;20163;-78
2021/09/16 06:39:47;;;;;;;494.55;31.67;;;;;;;15.34;97.15;95505.72;6169301;23;20167;-79
2021/09/16 06:42:12;;;;;;;211.02;21.63;;;;;;;15.40;97.59;95506.81;6172536;23;20152;-79
2021/09/16 06:44:37;;;;;;;347.67;22.85;;;;;;;15.36;97.39;95510.75;6145935;23;20212;-81
2021/09/16 06:47:03;;;;;;;92.85;15.80;;;;;;;15.28;98.07;95520.34;6171098;23;20639;-78
2021/09/16 06:49:28;;;;;;;13.27;9.57;;;;;;;15.28;97.13;95514.25;6144149;23;20405;-78
2021/09/16 06:51:55;;;;;;;12.88;9.05;;;;;;;15.20;97.59;95516.97;6168896;23;20182;-77
2021/09/16 06:54:20;;;;;;;8.65;7.70;;;;;;;15.28;97.34;95524.72;6169892;23;20158;-78
2021/09/16 06:56:46;;;;;;;6.78;6.03;;;;;;;15.26;97.15;95526.72;6170225;23;20171;-76
2021/09/16 06:59:11;;;;;;;7.40;6.60;;;;;;;15.30;96.82;95528.00;6144916;23;20163;-78
2021/09/16 07:01:36;;;;;;;10.38;6.75;;;;;;;15.32;96.79;95530.44;6169783;23;20259;-76
2021/09/16 07:04:02;;;;;;;4.53;3.38;;;;;;;15.28;96.15;95529.97;6168265;23;20497;-78
2021/09/16 07:06:27;;;;;;;4.20;3.47;;;;;;;15.28;96.69;95525.56;6169311;23;20199;-79
2021/09/16 07:08:52;;;;;;;3.63;3.00;;;;;;;15.29;96.32;95536.84;6170550;23;20178;-78
2021/09/16 07:11:18;;;;;;;4.35;3.75;;;;;;;15.22;96.60;95541.97;6144850;23;20219;-78
2021/09/16 07:13:44;;;;;;;17.20;4.63;;;;;;;15.21;96.78;95552.59;6146679;23;20155;-78
2021/09/16 07:16:09;;;;;;;13.90;5.32;;;;;;;15.26;96.64;95551.06;6143876;23;20182;-80
2021/09/16 07:18:35;;;;;;;25.73;4.80;;;;;;;15.16;96.53;95552.31;6167360;23;20167;-77
2021/09/16 07:21:00;;;;;;;3.03;2.72;;;;;;;15.06;96.75;95555.16;6142844;23;20171;-79
2021/09/16 07:23:26;;;;;;;2.45;2.25;;;;;;;15.00;96.64;95556.66;6142554;23;20155;-77
2021/09/16 07:25:51;;;;;;;2.90;2.13;;;;;;;14.96;96.78;95562.44;6143068;23;20715;-80
2021/09/16 07:28:16;;;;;;;1.83;1.73;;;;;;;14.88;96.94;95568.53;6143980;23;20578;-79
2021/09/16 07:30:42;;;;;;;2.03;1.90;;;;;;;14.94;97.17;95574.88;6144193;23;20495;-78
2021/09/16 07:33:07;;;;;;;3.17;2.70;;;;;;;14.93;97.07;95575.84;6168018;23;20221;-79
2021/09/16 07:35:32;;;;;;;4.32;2.90;;;;;;;14.87;97.12;95579.97;6167553;23;20250;-79
2021/09/16 07:37:58;;;;;;;3.47;3.17;;;;;;;14.89;97.28;95588.44;6168166;23;20266;-79
2021/09/16 07:40:23;;;;;;;2.83;2.63;;;;;;;14.93;96.91;95583.69;6167173;23;20232;-78
2021/09/16 07:42:48;;;;;;;3.10;2.80;;;;;;;14.83;97.38;95589.13;6170153;23;20190;-78
2021/09/16 07:45:14;;;;;;;3.15;2.95;;;;;;;14.85;97.41;95589.78;6141582;23;20687;-79
2021/09/16 07:47:39;;;;;;;3.75;3.45;;;;;;;14.80;97.33;95597.31;6173263;23;20155;-78
2021/09/16 07:50:04;;;;;;;5.10;3.58;;;;;;;14.75;97.51;95597.03;6173637;23;20606;-79
2021/09/16 07:52:30;;;;;;;13.30;4.65;;;;;;;14.62;97.03;95604.63;6148318;23;20159;-79
2021/09/16 07:54:55;;;;;;;19.10;6.57;;;;;;;14.43;96.87;95613.66;6147455;23;20194;-78
2021/09/16 07:57:20;;;;;;;7.05;6.32;;;;;;;14.28;96.38;95612.72;6149696;23;20160;-78
2021/09/16 07:59:46;;;;;;;21.17;7.70;;;;;;;14.13;97.21;95617.81;6174666;23;20162;-78
2021/09/16 08:02:11;;;;;;;17.43;8.47;;;;;;;14.14;97.55;95622.09;6174199;23;20159;-77
2021/09/16 08:04:36;;;;;;;10.93;8.40;;;;;;;14.04;96.72;95618.81;6149518;23;20164;-80
2021/09/16 08:07:02;;;;;;;20.87;9.60;;;;;;;13.97;96.75;95618.69;6174709;23;20202;-79
2021/09/16 08:09:27;;;;;;;12.70;10.00;;;;;;;13.86;97.61;95626.84;6176187;23;20143;-78
2021/09/16 08:11:52;;;;;;;12.13;10.70;;;;;;;13.83;97.30;95633.22;6150417;23;20159;-79
2021/09/16 08:14:18;;;;;;;14.90;11.67;;;;;;;13.88;97.12;95630.13;6149952;23;20174;-78
2021/09/16 08:16:43;;;;;;;14.07;11.30;;;;;;;13.91;97.23;95631.59;6174382;23;20661;-80
2021/09/16 08:19:08;;;;;;;18.37;12.33;;;;;;;13.91;97.08;95626.38;6174739;23;20166;-78
2021/09/16 08:21:34;;;;;;;15.17;12.53;;;;;;;13.76;97.14;95629.66;6175365;23;20175;-78
2021/09/16 08:24:00;;;;;;;15.73;12.43;;;;;;;13.79;97.73;95631.13;6149698;23;20199;-78
2021/09/16 08:26:25;;;;;;;15.77;12.17;;;;;;;13.78;97.28;95632.09;6174468;23;20190;-77
2021/09/16 08:28:51;;;;;;;21.30;13.80;;;;;;;13.85;97.17;95641.72;6174832;23;20170;-79
2021/09/16 08:31:16;;;;;;;17.87;14.60;;;;;;;13.93;97.03;95642.69;6150190;23;20166;-77
2021/09/16 08:33:42;;;;;;;21.50;16.80;;;;;;;13.91;95.86;95645.47;6172860;23;20155;-76
2021/09/16 08:36:10;;;;;;;21.17;17.67;;;;;;;13.69;94.55;95657.38;6175564;23;20211;-77
2021/09/16 08:38:35;;;;;;;23.40;17.40;;;;;;;13.84;94.81;95654.94;6148469;23;20175;-78
2021/09/16 08:41:01;;;;;;;23.90;18.20;;;;;;;13.77;94.74;95651.34;6148560;23;20171;-79
2021/09/16 08:43:32;;;;;;;21.93;17.17;;;;;;;13.81;94.57;95656.06;6171086;23;20169;-77
2021/09/16 08:45:58;;;;;;;21.37;16.57;;;;;;;13.73;94.08;95658.69;6146903;23;20243;-78
2021/09/16 08:48:24;;;;;;;20.57;17.53;;;;;;;13.65;94.99;95657.88;6170545;23;20155;-78
2021/09/16 08:50:49;;;;;;;20.10;16.77;;;;;;;13.67;95.46;95654.13;6145862;23;20216;-78
2021/09/16 08:53:21;;;;;;;23.20;17.93;;;;;;;13.70;95.03;95666.88;6170247;23;20156;-77
2021/09/16 08:55:47;;;;;;;20.97;17.20;;;;;;;13.64;95.28;95669.31;6168133;23;20513;-78
2021/09/16 08:58:14;;;;;;;21.90;17.17;;;;;;;13.58;95.45;95665.53;6144832;23;20158;-78
2021/09/16 09:00:39;;;;;;;23.60;17.30;;;;;;;13.66;95.54;95667.34;6144044;23;20508;-78
2021/09/16 09:03:05;;;;;;;19.17;16.47;;;;;;;13.62;95.68;95672.09;6168596;23;20159;-78
2021/09/16 09:05:30;;;;;;;22.43;17.20;;;;;;;13.57;96.14;95667.34;6144057;23;20676;-78
2021/09/16 09:07:59;;;;;;;22.40;17.03;;;;;;;13.57;95.52;95672.56;6172014;23;20225;-77
2021/09/16 09:10:36;;;;;;;23.23;18.67;;;;;;;13.63;95.20;95678.13;6169824;23;20183;-77
2021/09/16 09:13:02;;;;;;;25.60;17.83;;;;;;;13.59;95.44;95680.22;6168695;23;20153;-77
2021/09/16 09:15:27;;;;;;;24.40;18.37;;;;;;;13.71;95.13;95678.13;6166492;23;20175;-78
2021/09/16 09:18:04;;;;;;;28.80;19.43;;;;;;;13.63;95.50;95667.69;6168181;23;20186;-79
2021/09/16 09:20:29;;;;;;;24.37;19.47;;;;;;;13.72;94.89;95675.34;6167908;23;20166;-77
2021/09/16 09:22:55;;;;;;;25.80;18.60;;;;;;;13.88;94.26;95674.50;6168151;23;20514;-80
2021/09/16 09:25:20;;;;;;;23.83;19.83;;;;;;;13.97;93.69;95676.13;6166996;23;20179;-78
2021/09/16 09:27:50;;;;;;;26.27;19.83;;;;;;;14.08;92.90;95665.34;6166565;23;20160;-78
2021/09/16 09:30:20;;;;;;;21.30;17.90;;;;;;;14.28;92.38;95665.78;6167145;23;20159;-77
2021/09/16 09:32:59;;;;;;;24.27;18.73;;;;;;;14.07;92.07;95671.56;6166881;23;20151;-77
2021/09/16 09:35:37;;;;;;;24.47;19.60;;;;;;;14.14;92.85;95674.31;6142494;23;20179;-78
2021/09/16 09:38:23;;;;;;;23.67;19.47;;;;;;;14.16;92.08;95675.78;6166990;23;20139;-80
2021/09/16 09:40:54;;;;;;;26.90;20.53;;;;;;;14.27;92.28;95681.63;6166503;23;20144;-77
2021/09/16 09:43:23;;;;;;;29.80;21.00;;;;;;;14.18;91.76;95673.81;6143287;23;20151;-78
2021/09/16 09:46:05;;;;;;;28.53;19.97;;;;;;;14.21;90.82;95680.47;6165905;23;20191;-79
2021/09/16 09:48:32;;;;;;;30.03;21.33;;;;;;;14.33;90.86;95681.78;6142446;23;20219;-78
2021/09/16 09:50:58;;;;;;;27.50;20.77;;;;;;;14.35;91.12;95684.22;6143010;23;20155;-77
2021/09/16 09:53:23;;;;;;;32.43;22.47;;;;;;;14.38;91.05;95682.06;6167768;23;20151;-79
2021/09/16 09:55:50;;;;;;;31.00;22.07;;;;;;;14.32;90.87;95680.16;6142798;23;20187;-80
2021/09/16 09:58:29;;;;;;;29.37;22.03;;;;;;;14.34;91.07;95679.97;6142845;23;20497;-79
2021/09/16 10:00:54;;;;;;;32.20;22.90;;;;;;;14.22;90.94;95679.50;6166841;23;20232;-77
2021/09/16 10:03:30;;;;;;;31.03;22.67;;;;;;;14.25;91.09;95686.22;6167377;23;20163;-77
2021/09/16 10:06:08;;;;;;;30.43;22.97;;;;;;;14.28;91.85;95681.44;6166925;23;20179;-79
2021/09/16 10:08:34;;;;;;;34.20;23.83;;;;;;;14.09;91.55;95682.63;6168718;23;20171;-79
2021/09/16 10:10:59;;;;;;;33.70;25.07;;;;;;;14.14;92.01;95684.75;6166603;23;20167;-77
2021/09/16 10:13:24;;;;;;;35.30;24.53;;;;;;;14.21;92.02;95671.84;6143666;23;20154;-78
2021/09/16 10:15:52;;;;;;;35.07;25.77;;;;;;;14.15;92.56;95679.38;6171342;23;20182;-79
2021/09/16 10:18:18;;;;;;;37.87;25.27;;;;;;;14.28;92.45;95683.25;6140763;23;20203;-78
2021/09/16 10:20:45;;;;;;;37.67;26.17;;;;;;;14.35;92.93;95685.03;6167643;23;20155;-79
2021/09/16 10:23:10;;;;;;;38.80;26.57;;;;;;;14.27;92.84;95687.66;6141740;23;20162;-79
2021/09/16 10:25:44;;;;;;;35.83;25.73;;;;;;;14.31;92.33;95682.91;6163554;23;20194;-77
2021/09/16 10:28:10;;;;;;;36.70;25.50;;;;;;;14.30;92.75;95676.06;6173900;23;20165;-78
2021/09/16 10:30:46;;;;;;;38.00;24.70;;;;;;;14.34;92.65;95675.56;6176307;23;20151;-79
2021/09/16 10:33:22;;;;;;;37.57;25.40;;;;;;;14.27;93.03;95677.22;6149251;23;20210;-79
2021/09/16 10:36:05;;;;;;;37.00;23.87;;;;;;;14.17;92.74;95677.41;6162779;23;20175;-79
2021/09/16 10:38:30;;;;;;;35.40;23.23;;;;;;;14.22;93.63;95683.91;6138689;23;20151;-79
2021/09/16 10:41:17;;;;;;;37.03;25.20;;;;;;;14.33;94.05;95678.34;6164565;23;20159;-78
2021/09/16 10:43:44;;;;;;;32.33;21.70;;;;;;;14.39;93.60;95675.88;6162841;23;20532;-78
2021/09/16 10:46:28;;;;;;;29.43;22.43;;;;;;;14.50;93.68;95674.75;6163367;23;20262;-78
2021/09/16 10:48:54;;;;;;;29.47;21.20;;;;;;;14.68;92.89;95674.50;6162788;23;20167;-79
2021/09/16 10:51:47;;;;;;;24.93;20.40;;;;;;;14.89;92.03;95671.31;6138638;23;20223;-79
2021/09/16 10:54:26;;;;;;;25.20;18.83;;;;;;;14.86;90.86;95669.03;6139790;23;20170;-78
2021/09/16 10:57:01;;;;;;;22.67;18.03;;;;;;;14.97;91.41;95679.91;6165507;23;20178;-78
2021/09/16 10:59:51;;;;;;;25.00;17.37;;;;;;;15.04;91.06;95677.44;6162837;23;20170;-79
2021/09/16 11:02:38;;;;;;;21.10;16.77;;;;;;;15.13;91.19;95684.25;6163184;23;20609;-79
2021/09/16 11:05:10;;;;;;;20.88;16.77;;;;;;;15.01;90.11;95681.19;6161650;23;20179;-78
2021/09/16 11:07:37;;;;;;;21.93;17.70;;;;;;;14.89;90.46;95687.81;6162766;23;20155;-78
2021/09/16 11:10:15;;;;;;;22.53;18.47;;;;;;;14.81;91.60;95690.44;6162895;23;20159;-78
2021/09/16 11:12:42;;;;;;;23.90;19.77;;;;;;;14.84;91.85;95682.28;6163618;23;20152;-78
2021/09/16 11:15:11;;;;;;;24.27;20.77;;;;;;;14.80;91.71;95683.59;6136251;23;20183;-78
2021/09/16 11:17:37;;;;;;;26.07;21.43;;;;;;;14.92;90.81;95686.63;6162626;23;20625;-77
2021/09/16 11:20:03;;;;;;;23.63;20.43;;;;;;;14.97;90.87;95685.16;6161764;23;20552;-78
2021/09/16 11:22:29;;;;;;;26.80;21.97;;;;;;;14.90;90.47;95681.59;6162257;23;20213;-77
2021/09/16 11:24:56;;;;;;;25.13;21.90;;;;;;;15.00;90.95;95674.34;6161367;23;20171;-78